Stockerau, Austria
Current Conditions -  °F | °C
As of 10:50 PM on Friday 28 Nov 2014 (Local Time) from LOXT Reporting Station
Drizzle Drizzle  
Wind Chill: 28°   Ceiling: 700
Heat Index: 36°   Visibility: 4mi
Dew Point: 34°   Wind: 10mph
Humidity: 93%   Direction: 80°E
Pressure: 30.09"   Gusts: NA
Location:  48.39°N, 16.23°E
Report Text: LOXT 282050Z 08009KT 6000 -DZ SCT006ST BKN007ST 02/01 Q1019 RMK OVC
Loading
Personal Weather Stations






























Interactive Weather Map New forecast layout! Learn more

10-Day Weather Forecast

Advertisements
Track Severe Weather on mobile